createdAt,value
2023-04-15T00:00:04.269Z,988.39
2023-04-15T00:01:04.621Z,988.38
2023-04-15T00:02:04.329Z,988.37
2023-04-15T00:03:04.498Z,988.36
2023-04-15T00:04:04.275Z,988.35
2023-04-15T00:05:04.215Z,988.35
2023-04-15T00:06:05.014Z,988.36
2023-04-15T00:07:04.194Z,988.35
2023-04-15T00:08:04.180Z,988.35
2023-04-15T00:09:04.181Z,988.34
2023-04-15T00:10:04.162Z,988.34
2023-04-15T00:11:04.478Z,988.35
2023-04-15T00:12:04.139Z,988.35
2023-04-15T00:13:04.135Z,988.34
2023-04-15T00:14:04.116Z,988.33
2023-04-15T00:15:04.107Z,988.32
2023-04-15T00:16:04.108Z,988.33
2023-04-15T00:17:04.705Z,988.33
2023-04-15T00:18:04.082Z,988.33
2023-04-15T00:19:04.073Z,988.33
2023-04-15T00:20:04.061Z,988.34
2023-04-15T00:21:04.055Z,988.33
2023-04-15T00:22:04.528Z,988.31
2023-04-15T00:23:04.402Z,988.30
2023-04-15T00:24:04.035Z,988.30
2023-04-15T00:25:04.013Z,988.29
2023-04-15T00:26:04.014Z,988.29
2023-04-15T00:27:04.239Z,988.27
2023-04-15T00:28:04.099Z,988.26
2023-04-15T00:29:03.964Z,988.26
2023-04-15T00:30:03.960Z,988.26
2023-04-15T00:31:04.024Z,988.26
2023-04-15T00:32:04.351Z,988.26
2023-04-15T00:33:03.921Z,988.25
2023-04-15T00:34:03.925Z,988.25
2023-04-15T00:35:03.901Z,988.24
2023-04-15T00:36:03.923Z,988.24
2023-04-15T00:37:04.697Z,988.24
2023-04-15T00:38:03.883Z,988.23
2023-04-15T00:39:03.869Z,988.22
2023-04-15T00:40:03.860Z,988.21
2023-04-15T00:41:03.852Z,988.19
2023-04-15T00:42:04.572Z,988.18
2023-04-15T00:43:03.823Z,988.17
2023-04-15T00:44:03.822Z,988.17
2023-04-15T00:45:03.803Z,988.16
2023-04-15T00:46:03.828Z,988.16
2023-04-15T00:47:04.760Z,988.17
2023-04-15T00:48:03.834Z,988.18
2023-04-15T00:49:03.763Z,988.20
2023-04-15T00:50:03.761Z,988.20
2023-04-15T00:51:03.745Z,988.21
2023-04-15T00:52:04.051Z,988.22
2023-04-15T00:53:03.730Z,988.24
2023-04-15T00:54:03.717Z,988.24
2023-04-15T00:55:03.708Z,988.23
2023-04-15T00:56:03.699Z,988.22
2023-04-15T00:57:04.568Z,988.23
2023-04-15T00:58:03.673Z,988.22
2023-04-15T00:59:03.665Z,988.22
2023-04-15T01:00:03.656Z,988.22
2023-04-15T01:01:03.639Z,988.21
2023-04-15T01:02:04.216Z,988.21
2023-04-15T01:03:03.765Z,988.21
2023-04-15T01:04:03.698Z,988.21
2023-04-15T01:05:03.611Z,988.21
2023-04-15T01:06:04.288Z,988.22
2023-04-15T01:07:04.296Z,988.21
2023-04-15T01:08:03.580Z,988.20
2023-04-15T01:09:03.773Z,988.18
2023-04-15T01:10:03.556Z,988.16
2023-04-15T01:11:03.612Z,988.16
2023-04-15T01:12:04.251Z,988.15
2023-04-15T01:13:03.514Z,988.14
2023-04-15T01:14:03.514Z,988.14
2023-04-15T01:15:03.500Z,988.14
2023-04-15T01:16:03.573Z,988.13
2023-04-15T01:17:03.814Z,988.13
2023-04-15T01:18:03.528Z,988.11
2023-04-15T01:19:03.491Z,988.10
2023-04-15T01:20:03.449Z,988.10
2023-04-15T01:21:03.435Z,988.09
2023-04-15T01:22:03.694Z,988.08
2023-04-15T01:23:03.427Z,988.08
2023-04-15T01:24:03.412Z,988.08
2023-04-15T01:25:03.398Z,988.08
2023-04-15T01:26:03.401Z,988.08
2023-04-15T01:27:03.573Z,988.08
2023-04-15T01:28:03.363Z,988.08
2023-04-15T01:29:03.357Z,988.08
2023-04-15T01:30:03.348Z,988.08
2023-04-15T01:31:03.371Z,988.07
2023-04-15T01:32:03.510Z,988.06
2023-04-15T01:33:03.381Z,988.05
2023-04-15T01:34:03.313Z,988.03
2023-04-15T01:35:03.294Z,988.02
2023-04-15T01:36:03.288Z,988.03
2023-04-15T01:37:03.449Z,988.03
2023-04-15T01:38:03.269Z,988.04
2023-04-15T01:39:03.339Z,988.03
2023-04-15T01:40:03.254Z,988.02
2023-04-15T01:41:03.233Z,988.01
2023-04-15T01:42:03.678Z,988.00
2023-04-15T01:43:03.209Z,988.01
2023-04-15T01:44:03.210Z,988.02
2023-04-15T01:45:03.207Z,988.03
2023-04-15T01:46:03.193Z,988.04
2023-04-15T01:47:04.100Z,988.03
2023-04-15T01:48:03.203Z,988.03
2023-04-15T01:49:03.201Z,988.03
2023-04-15T01:50:03.205Z,988.04
2023-04-15T01:51:03.132Z,988.03
2023-04-15T01:52:03.759Z,988.02
2023-04-15T01:53:03.117Z,988.01
2023-04-15T01:54:03.129Z,987.99
2023-04-15T01:55:03.094Z,987.99
2023-04-15T01:56:03.087Z,987.98
2023-04-15T01:57:03.851Z,987.96
2023-04-15T01:58:03.065Z,987.97
2023-04-15T01:59:03.095Z,987.98
2023-04-15T02:00:03.115Z,987.98
2023-04-15T02:01:03.230Z,987.98
2023-04-15T02:02:03.371Z,987.97
2023-04-15T02:03:03.185Z,987.97
2023-04-15T02:04:03.081Z,987.97
2023-04-15T02:05:02.998Z,987.97
2023-04-15T02:06:02.998Z,987.96
2023-04-15T02:07:03.717Z,987.95
2023-04-15T02:08:02.974Z,987.94
2023-04-15T02:09:03.168Z,987.95
2023-04-15T02:10:02.948Z,987.96
2023-04-15T02:11:02.924Z,987.97
2023-04-15T02:12:03.701Z,987.98
2023-04-15T02:13:02.914Z,987.99
2023-04-15T02:14:02.906Z,987.99
2023-04-15T02:15:02.891Z,987.98
2023-04-15T02:16:02.968Z,987.97
2023-04-15T02:17:02.872Z,987.95
2023-04-15T02:18:03.634Z,987.94
2023-04-15T02:19:03.004Z,987.93
2023-04-15T02:20:02.843Z,987.94
2023-04-15T02:21:02.826Z,987.93
2023-04-15T02:22:03.235Z,987.92
2023-04-15T02:23:02.810Z,987.91
2023-04-15T02:24:02.803Z,987.90
2023-04-15T02:25:02.793Z,987.89
2023-04-15T02:26:02.786Z,987.90
2023-04-15T02:27:03.490Z,987.89
2023-04-15T02:28:02.792Z,987.88
2023-04-15T02:29:02.946Z,987.86
2023-04-15T02:30:02.770Z,987.86
2023-04-15T02:31:02.734Z,987.86
2023-04-15T02:32:02.988Z,987.85
2023-04-15T02:33:02.789Z,987.84
2023-04-15T02:34:02.704Z,987.86
2023-04-15T02:35:02.692Z,987.87
2023-04-15T02:36:02.703Z,987.88
2023-04-15T02:37:02.681Z,987.91
2023-04-15T02:38:03.429Z,987.92
2023-04-15T02:39:03.015Z,987.93
2023-04-15T02:40:02.640Z,987.95
2023-04-15T02:41:02.627Z,987.96
2023-04-15T02:42:03.405Z,987.98
2023-04-15T02:43:02.606Z,987.99
2023-04-15T02:44:02.600Z,988.01
2023-04-15T02:45:02.586Z,988.02
2023-04-15T02:46:02.626Z,988.04
2023-04-15T02:47:03.369Z,988.06
2023-04-15T02:48:02.562Z,988.07
2023-04-15T02:49:02.872Z,988.08
2023-04-15T02:50:02.541Z,988.09
2023-04-15T02:51:02.522Z,988.09
2023-04-15T02:52:02.520Z,988.10
2023-04-15T02:53:02.814Z,988.10
2023-04-15T02:54:02.495Z,988.11
2023-04-15T02:55:02.504Z,988.10
2023-04-15T02:56:02.485Z,988.10
2023-04-15T02:57:02.460Z,988.10
2023-04-15T02:58:02.775Z,988.09
2023-04-15T02:59:02.624Z,988.07
2023-04-15T03:00:02.439Z,988.07
2023-04-15T03:01:02.457Z,988.07
2023-04-15T03:02:02.429Z,988.06
2023-04-15T03:03:02.904Z,988.06
2023-04-15T03:04:02.556Z,988.06
2023-04-15T03:05:02.378Z,988.05
2023-04-15T03:06:02.378Z,988.05
2023-04-15T03:07:02.354Z,988.05
2023-04-15T03:08:03.050Z,988.04
2023-04-15T03:09:02.536Z,988.04
2023-04-15T03:10:02.322Z,988.03
2023-04-15T03:11:02.316Z,988.03
2023-04-15T03:12:02.317Z,988.03
2023-04-15T03:13:03.130Z,988.02
2023-04-15T03:14:02.289Z,988.02
2023-04-15T03:15:02.279Z,988.02
2023-04-15T03:16:02.390Z,988.02
2023-04-15T03:17:02.248Z,988.03
2023-04-15T03:18:03.095Z,988.02
2023-04-15T03:19:02.370Z,988.02
2023-04-15T03:20:02.343Z,988.02
2023-04-15T03:21:02.218Z,988.02
2023-04-15T03:22:02.226Z,988.02
2023-04-15T03:23:02.365Z,988.03
2023-04-15T03:24:02.184Z,988.04
2023-04-15T03:25:02.203Z,988.04
2023-04-15T03:26:02.196Z,988.05
2023-04-15T03:27:02.173Z,988.05
2023-04-15T03:28:02.928Z,988.05
2023-04-15T03:29:02.331Z,988.05
2023-04-15T03:30:02.133Z,988.04
2023-04-15T03:31:02.132Z,988.03
2023-04-15T03:32:02.358Z,988.02
2023-04-15T03:33:02.131Z,988.01
2023-04-15T03:34:02.107Z,988.00
2023-04-15T03:35:02.077Z,988.00
2023-04-15T03:36:02.068Z,987.99
2023-04-15T03:37:02.870Z,987.99
2023-04-15T03:38:02.039Z,987.98
2023-04-15T03:39:02.344Z,987.98
2023-04-15T03:40:02.020Z,987.96
2023-04-15T03:41:02.048Z,987.96
2023-04-15T03:42:03.019Z,987.96
2023-04-15T03:43:01.994Z,987.96
2023-04-15T03:44:02.016Z,987.96
2023-04-15T03:45:01.969Z,987.98
2023-04-15T03:46:02.123Z,987.99
2023-04-15T03:47:02.061Z,987.98
2023-04-15T03:48:16.424Z,987.98
2023-04-15T03:49:02.117Z,987.97
2023-04-15T03:50:01.932Z,987.97
2023-04-15T03:51:01.914Z,987.98
2023-04-15T03:52:02.296Z,987.99
2023-04-15T03:53:01.881Z,988.01
2023-04-15T03:54:01.890Z,988.03
2023-04-15T03:55:01.873Z,988.06
2023-04-15T03:56:01.866Z,988.09
2023-04-15T03:57:02.495Z,988.11
2023-04-15T03:58:01.851Z,988.11
2023-04-15T03:59:02.190Z,988.13
2023-04-15T04:00:01.795Z,988.13
2023-04-15T04:01:01.805Z,988.15
2023-04-15T04:02:02.144Z,988.15
2023-04-15T04:03:01.996Z,988.15
2023-04-15T04:04:01.800Z,988.16
2023-04-15T04:05:01.703Z,988.17
2023-04-15T04:06:01.702Z,988.18
2023-04-15T04:07:02.484Z,988.18
2023-04-15T04:08:01.673Z,988.17
2023-04-15T04:09:01.958Z,988.16
2023-04-15T04:10:01.664Z,988.15
2023-04-15T04:11:01.686Z,988.14
2023-04-15T04:12:02.486Z,988.13
2023-04-15T04:13:01.618Z,988.12
2023-04-15T04:14:01.625Z,988.13
2023-04-15T04:15:01.730Z,988.13
2023-04-15T04:16:01.720Z,988.12
2023-04-15T04:17:01.992Z,988.11
2023-04-15T04:18:01.649Z,988.10
2023-04-15T04:19:01.739Z,988.09
2023-04-15T04:20:01.596Z,988.07
2023-04-15T04:21:01.545Z,988.04
2023-04-15T04:22:01.534Z,988.02
2023-04-15T04:23:02.190Z,988.00
2023-04-15T04:24:01.624Z,988.00
2023-04-15T04:25:01.503Z,988.00
2023-04-15T04:26:01.520Z,988.00
2023-04-15T04:27:02.345Z,988.02
2023-04-15T04:28:01.512Z,988.04
2023-04-15T04:29:01.697Z,988.04
2023-04-15T04:30:01.467Z,988.04
2023-04-15T04:31:01.790Z,988.04
2023-04-15T04:32:01.471Z,988.05
2023-04-15T04:33:01.829Z,988.07
2023-04-15T04:34:01.414Z,988.09
2023-04-15T04:35:01.396Z,988.09
2023-04-15T04:36:01.398Z,988.10
2023-04-15T04:37:01.379Z,988.10
2023-04-15T04:38:02.209Z,988.11
2023-04-15T04:39:01.505Z,988.12
2023-04-15T04:40:01.340Z,988.11
2023-04-15T04:41:02.024Z,988.11
2023-04-15T04:42:01.340Z,988.10
2023-04-15T04:43:01.763Z,988.11
2023-04-15T04:44:01.297Z,988.11
2023-04-15T04:45:01.302Z,988.12
2023-04-15T04:46:01.303Z,988.12
2023-04-15T04:47:01.285Z,988.12
2023-04-15T04:48:02.231Z,988.12
2023-04-15T04:49:01.566Z,988.12
2023-04-15T04:50:01.244Z,988.13
2023-04-15T04:51:01.232Z,988.14
2023-04-15T04:52:01.212Z,988.15
2023-04-15T04:53:01.483Z,988.18
2023-04-15T04:54:03.470Z,988.16
2023-04-15T04:55:01.198Z,988.17
2023-04-15T04:56:01.172Z,988.18
2023-04-15T04:57:01.170Z,988.19
2023-04-15T04:58:01.902Z,988.19
2023-04-15T04:59:01.276Z,988.18
2023-04-15T05:00:01.129Z,988.17
2023-04-15T05:01:01.205Z,988.16
2023-04-15T05:02:01.180Z,988.20
2023-04-15T05:03:01.549Z,988.17
2023-04-15T05:04:01.190Z,988.18
2023-04-15T05:05:01.086Z,988.17
2023-04-15T05:06:01.083Z,988.17
2023-04-15T05:07:01.063Z,988.18
2023-04-15T05:08:01.783Z,988.18
2023-04-15T05:09:01.192Z,988.17
2023-04-15T05:10:01.031Z,988.18
2023-04-15T05:11:01.026Z,988.19
2023-04-15T05:12:01.012Z,988.19
2023-04-15T05:13:01.015Z,988.19
2023-04-15T05:14:00.989Z,988.18
2023-04-15T05:15:00.994Z,988.19
2023-04-15T05:16:01.014Z,988.19
2023-04-15T05:17:00.963Z,988.20
2023-04-15T05:18:01.794Z,988.21
2023-04-15T05:19:01.266Z,988.23
2023-04-15T05:20:00.930Z,988.25
2023-04-15T05:21:00.928Z,988.26
2023-04-15T05:22:00.921Z,988.26
2023-04-15T05:23:01.274Z,988.26
2023-04-15T05:24:00.899Z,988.26
2023-04-15T05:25:00.890Z,988.27
2023-04-15T05:26:00.870Z,988.27
2023-04-15T05:27:00.860Z,988.28
2023-04-15T05:28:01.683Z,988.30
2023-04-15T05:29:01.264Z,988.30
2023-04-15T05:30:01.143Z,988.31
2023-04-15T05:31:00.830Z,988.31
2023-04-15T05:32:00.817Z,988.32
2023-04-15T05:33:01.166Z,988.32
2023-04-15T05:34:00.785Z,988.31
2023-04-15T05:35:00.775Z,988.31
2023-04-15T05:36:00.767Z,988.30
2023-04-15T05:37:00.758Z,988.31
2023-04-15T05:38:01.544Z,988.31
2023-04-15T05:39:01.055Z,988.30
2023-04-15T05:40:00.729Z,988.32
2023-04-15T05:41:00.718Z,988.31
2023-04-15T05:42:00.709Z,988.33
2023-04-15T05:43:01.031Z,988.35
2023-04-15T05:44:00.683Z,988.36
2023-04-15T05:45:00.679Z,988.37
2023-04-15T05:46:00.660Z,988.39
2023-04-15T05:47:00.658Z,988.40
2023-04-15T05:48:01.459Z,988.41
2023-04-15T05:49:00.889Z,988.41
2023-04-15T05:50:00.643Z,988.40
2023-04-15T05:51:00.614Z,988.40
2023-04-15T05:52:00.603Z,988.40
2023-04-15T05:53:00.919Z,988.38
2023-04-15T05:54:00.575Z,988.38
2023-04-15T05:55:00.584Z,988.38
2023-04-15T05:56:00.561Z,988.37
2023-04-15T05:57:00.550Z,988.37
2023-04-15T05:58:00.836Z,988.39
2023-04-15T05:59:00.778Z,988.39
2023-04-15T06:00:00.520Z,988.41
2023-04-15T06:01:00.523Z,988.41
2023-04-15T06:02:00.520Z,988.42
2023-04-15T06:03:00.960Z,988.40
2023-04-15T06:04:00.553Z,988.40
2023-04-15T06:05:00.548Z,988.41
2023-04-15T06:06:00.456Z,988.39
2023-04-15T06:07:00.459Z,988.38
2023-04-15T06:08:01.241Z,988.41
2023-04-15T06:09:00.643Z,988.41
2023-04-15T06:10:00.430Z,988.42
2023-04-15T06:11:00.417Z,988.42
2023-04-15T06:12:00.393Z,988.43
2023-04-15T06:13:01.210Z,988.44
2023-04-15T06:14:00.384Z,988.44
2023-04-15T06:15:00.547Z,988.45
2023-04-15T06:16:00.380Z,988.45
2023-04-15T06:17:00.358Z,988.46
2023-04-15T06:18:01.259Z,988.45
2023-04-15T06:19:00.465Z,988.44
2023-04-15T06:20:00.325Z,988.45
2023-04-15T06:21:00.311Z,988.46
2023-04-15T06:22:00.299Z,988.48
2023-04-15T06:23:00.671Z,988.47
2023-04-15T06:24:00.272Z,988.48
2023-04-15T06:25:00.309Z,988.47
2023-04-15T06:26:00.254Z,988.48
2023-04-15T06:27:00.265Z,988.48
2023-04-15T06:28:00.576Z,988.50
2023-04-15T06:29:00.590Z,988.50
2023-04-15T06:30:00.215Z,988.51
2023-04-15T06:31:00.220Z,988.52
2023-04-15T06:32:00.363Z,988.49
2023-04-15T06:33:00.737Z,988.51
2023-04-15T06:34:00.166Z,988.51
2023-04-15T06:35:00.201Z,988.52
2023-04-15T06:36:00.175Z,988.52
2023-04-15T06:37:00.144Z,988.54
2023-04-15T06:38:00.880Z,988.55
2023-04-15T06:39:00.323Z,988.58
2023-04-15T06:40:00.135Z,988.57
2023-04-15T06:41:00.139Z,988.57
2023-04-15T06:42:00.113Z,988.57
2023-04-15T06:43:00.886Z,988.57
2023-04-15T06:44:00.101Z,988.57
2023-04-15T06:45:00.075Z,988.58
2023-04-15T06:46:00.129Z,988.58
2023-04-15T06:47:00.042Z,988.59
2023-04-15T06:48:00.930Z,988.60
2023-04-15T06:49:00.300Z,988.60
2023-04-15T06:50:00.010Z,988.61
2023-04-15T06:50:59.997Z,988.59
2023-04-15T06:51:59.984Z,988.58
2023-04-15T06:53:00.350Z,988.57
2023-04-15T06:53:59.964Z,988.58
2023-04-15T06:54:59.963Z,988.56
2023-04-15T06:55:59.938Z,988.56
2023-04-15T06:56:59.935Z,988.57
2023-04-15T06:58:00.714Z,988.55
2023-04-15T06:58:59.982Z,988.55
2023-04-15T06:59:59.901Z,988.53
2023-04-15T07:00:59.954Z,988.54
2023-04-15T07:01:59.911Z,988.55
2023-04-15T07:03:00.383Z,988.55
2023-04-15T07:03:59.879Z,988.55
2023-04-15T07:04:59.860Z,988.53
2023-04-15T07:05:59.841Z,988.54
2023-04-15T07:06:59.832Z,988.52
2023-04-15T07:08:00.683Z,988.53
2023-04-15T07:09:00.026Z,988.52
2023-04-15T07:09:59.809Z,988.51
2023-04-15T07:10:59.796Z,988.49
2023-04-15T07:11:59.781Z,988.49
2023-04-15T07:13:00.654Z,988.47
2023-04-15T07:13:59.759Z,988.49
2023-04-15T07:14:59.761Z,988.48
2023-04-15T07:15:59.763Z,988.48
2023-04-15T07:16:59.818Z,988.45
2023-04-15T07:18:00.568Z,988.46
2023-04-15T07:19:00.000Z,988.44
2023-04-15T07:19:59.698Z,988.46
2023-04-15T07:20:59.691Z,988.44
2023-04-15T07:21:59.677Z,988.46
2023-04-15T07:23:00.039Z,988.46
2023-04-15T07:23:59.665Z,988.46
2023-04-15T07:24:59.665Z,988.46
2023-04-15T07:25:59.652Z,988.49
2023-04-15T07:27:01.283Z,988.50
2023-04-15T07:28:00.491Z,988.50
2023-04-15T07:28:59.927Z,988.49
2023-04-15T07:29:59.595Z,988.49
2023-04-15T07:30:59.644Z,988.48
2023-04-15T07:31:59.580Z,988.47
2023-04-15T07:32:59.967Z,988.46
2023-04-15T07:33:59.557Z,988.47
2023-04-15T07:34:59.554Z,988.46
2023-04-15T07:35:59.537Z,988.46
2023-04-15T07:36:59.533Z,988.46
2023-04-15T07:37:59.520Z,988.48
2023-04-15T07:39:00.527Z,988.47
2023-04-15T07:39:59.799Z,988.46
2023-04-15T07:40:59.487Z,988.48
2023-04-15T07:41:59.504Z,988.45
2023-04-15T07:42:59.467Z,988.46
2023-04-15T07:43:59.873Z,988.48
2023-04-15T07:44:59.449Z,988.49
2023-04-15T07:45:59.450Z,988.50
2023-04-15T07:46:59.444Z,988.48
2023-04-15T07:47:59.425Z,988.47
2023-04-15T07:49:00.671Z,988.45
2023-04-15T07:49:59.401Z,988.44
2023-04-15T07:50:59.390Z,988.47
2023-04-15T07:51:59.377Z,988.45
2023-04-15T07:52:59.751Z,988.45
2023-04-15T07:53:59.355Z,988.43
2023-04-15T07:54:59.355Z,988.46
2023-04-15T07:55:59.332Z,988.48
2023-04-15T07:56:59.339Z,988.49
2023-04-15T07:57:59.992Z,988.50
2023-04-15T07:58:59.306Z,988.46
2023-04-15T07:59:59.293Z,988.49
2023-04-15T08:00:59.299Z,988.48
2023-04-15T08:01:59.300Z,988.47
2023-04-15T08:02:59.810Z,988.49
2023-04-15T08:03:59.382Z,988.47
2023-04-15T08:04:59.258Z,988.45
2023-04-15T08:05:59.234Z,988.47
2023-04-15T08:06:59.228Z,988.47
2023-04-15T08:08:00.123Z,988.45
2023-04-15T08:08:59.210Z,988.45
2023-04-15T08:09:59.490Z,988.43
2023-04-15T08:10:59.196Z,988.43
2023-04-15T08:11:59.169Z,988.46
2023-04-15T08:12:59.853Z,988.45
2023-04-15T08:13:59.154Z,988.50
2023-04-15T08:14:59.148Z,988.45
2023-04-15T08:15:59.165Z,988.45
2023-04-15T08:16:59.128Z,988.45
2023-04-15T08:18:00.014Z,988.46
2023-04-15T08:18:59.137Z,988.49
2023-04-15T08:19:59.091Z,988.47
2023-04-15T08:20:59.093Z,988.46
2023-04-15T08:21:59.071Z,988.46
2023-04-15T08:22:59.399Z,988.49
2023-04-15T08:23:59.049Z,988.50
2023-04-15T08:24:59.039Z,988.48
2023-04-15T08:25:59.027Z,988.48
2023-04-15T08:26:59.017Z,988.48
2023-04-15T08:27:59.797Z,988.47
2023-04-15T08:28:59.023Z,988.50
2023-04-15T08:29:58.985Z,988.50
2023-04-15T08:30:58.976Z,988.47
2023-04-15T08:31:59.004Z,988.51
2023-04-15T08:32:59.336Z,988.51
2023-04-15T08:33:58.945Z,988.51
2023-04-15T08:34:58.935Z,988.52
2023-04-15T08:35:58.934Z,988.53
2023-04-15T08:36:58.918Z,988.53
2023-04-15T08:37:59.550Z,988.56
2023-04-15T08:38:58.908Z,988.56
2023-04-15T08:39:58.886Z,988.59
2023-04-15T08:40:58.868Z,988.56
2023-04-15T08:41:58.866Z,988.54
2023-04-15T08:42:59.621Z,988.56
2023-04-15T08:43:58.840Z,988.54
2023-04-15T08:44:58.836Z,988.54
2023-04-15T08:45:58.822Z,988.54
2023-04-15T08:46:58.832Z,988.52
2023-04-15T08:47:59.189Z,988.53
2023-04-15T08:48:58.801Z,988.56
2023-04-15T08:49:58.789Z,988.57
2023-04-15T08:50:58.780Z,988.60
2023-04-15T08:51:58.777Z,988.57
2023-04-15T08:52:59.261Z,988.61
2023-04-15T08:53:58.753Z,988.63
2023-04-15T08:54:58.735Z,988.66
2023-04-15T08:55:58.743Z,988.63
2023-04-15T08:56:58.712Z,988.65
2023-04-15T08:57:59.635Z,988.64
2023-04-15T08:58:58.709Z,988.65
2023-04-15T08:59:58.690Z,988.66
2023-04-15T09:00:58.696Z,988.66
2023-04-15T09:01:58.724Z,988.68
2023-04-15T09:02:59.157Z,988.68
2023-04-15T09:03:58.688Z,988.67
2023-04-15T09:04:58.634Z,988.66
2023-04-15T09:05:58.631Z,988.70
2023-04-15T09:06:58.615Z,988.68
2023-04-15T09:07:59.253Z,988.68
2023-04-15T09:08:58.592Z,988.70
2023-04-15T09:09:58.599Z,988.70
2023-04-15T09:10:58.574Z,988.73
2023-04-15T09:11:58.568Z,988.72
2023-04-15T09:12:59.250Z,988.79
2023-04-15T09:13:58.544Z,988.71
2023-04-15T09:14:58.523Z,988.71
2023-04-15T09:15:58.549Z,988.73
2023-04-15T09:16:58.620Z,988.72
2023-04-15T09:17:59.321Z,988.71
2023-04-15T09:18:58.489Z,988.73
2023-04-15T09:19:58.482Z,988.74
2023-04-15T09:20:58.468Z,988.73
2023-04-15T09:21:59.216Z,988.75
2023-04-15T09:22:58.815Z,988.76
2023-04-15T09:23:58.438Z,988.78
2023-04-15T09:24:58.423Z,988.78
2023-04-15T09:25:58.419Z,988.82
2023-04-15T09:26:58.406Z,988.79
2023-04-15T09:27:59.239Z,988.81
2023-04-15T09:28:58.389Z,988.81
2023-04-15T09:29:58.373Z,988.87
2023-04-15T09:30:58.411Z,988.84
2023-04-15T09:31:58.373Z,988.93
2023-04-15T09:32:58.683Z,988.88
2023-04-15T09:33:58.337Z,988.93
2023-04-15T09:34:58.321Z,988.90
2023-04-15T09:35:58.326Z,988.93
2023-04-15T09:36:58.298Z,988.96
2023-04-15T09:37:59.023Z,988.93
2023-04-15T09:38:58.304Z,988.97
2023-04-15T09:39:58.273Z,988.94
2023-04-15T09:40:58.262Z,988.96
2023-04-15T09:41:58.258Z,988.96
2023-04-15T09:42:58.997Z,988.96
2023-04-15T09:43:58.265Z,988.99
2023-04-15T09:44:58.211Z,989.01
2023-04-15T09:45:58.237Z,989.01
2023-04-15T09:46:58.199Z,989.04
2023-04-15T09:47:59.235Z,989.04
2023-04-15T09:48:58.179Z,989.08
2023-04-15T09:49:58.201Z,989.09
2023-04-15T09:50:58.156Z,989.15
2023-04-15T09:52:05.139Z,989.09
2023-04-15T09:52:58.444Z,989.12
2023-04-15T09:53:58.130Z,989.12
2023-04-15T09:54:58.126Z,989.11
2023-04-15T09:55:58.113Z,989.10
2023-04-15T09:56:58.097Z,989.10
2023-04-15T09:57:58.970Z,989.10
2023-04-15T09:58:58.083Z,989.08
2023-04-15T09:59:58.068Z,989.13
2023-04-15T10:00:58.095Z,989.09
2023-04-15T10:01:58.281Z,989.08
2023-04-15T10:02:58.615Z,989.10
2023-04-15T10:03:58.209Z,989.11
2023-04-15T10:04:58.013Z,989.10
2023-04-15T10:05:58.010Z,989.08
2023-04-15T10:06:57.997Z,989.21
2023-04-15T10:07:58.852Z,989.12
2023-04-15T10:08:57.984Z,989.12
2023-04-15T10:09:57.973Z,989.14
2023-04-15T10:10:57.958Z,989.14
2023-04-15T10:11:57.950Z,989.11
2023-04-15T10:12:58.657Z,989.11
2023-04-15T10:13:57.929Z,989.10
2023-04-15T10:14:57.919Z,989.08
2023-04-15T10:15:57.982Z,989.11
2023-04-15T10:16:57.930Z,989.10
2023-04-15T10:17:58.704Z,989.13
2023-04-15T10:18:57.885Z,989.13
2023-04-15T10:19:57.869Z,989.14
2023-04-15T10:20:57.856Z,989.14
2023-04-15T10:21:57.851Z,989.16
2023-04-15T10:22:58.123Z,989.14
2023-04-15T10:23:57.829Z,989.10
2023-04-15T10:24:57.816Z,989.15
2023-04-15T10:25:57.811Z,989.20
2023-04-15T10:26:57.801Z,989.18
2023-04-15T10:27:58.631Z,989.24
2023-04-15T10:28:59.951Z,989.26
2023-04-15T10:29:57.774Z,989.29
2023-04-15T10:30:57.798Z,989.31
2023-04-15T10:31:57.752Z,989.34
2023-04-15T10:32:58.104Z,989.36
2023-04-15T10:33:57.728Z,989.33
2023-04-15T10:34:57.713Z,989.36
2023-04-15T10:35:57.717Z,989.33
2023-04-15T10:36:57.693Z,989.35
2023-04-15T10:37:58.478Z,989.27
2023-04-15T10:38:57.670Z,989.25
2023-04-15T10:39:57.666Z,989.22
2023-04-15T10:40:57.653Z,989.19
2023-04-15T10:41:57.650Z,989.24
2023-04-15T10:42:57.953Z,989.23
2023-04-15T10:43:57.633Z,989.23
2023-04-15T10:44:57.609Z,989.23
2023-04-15T10:45:57.601Z,989.25
2023-04-15T10:46:57.745Z,989.24
2023-04-15T10:47:58.015Z,989.26
2023-04-15T10:48:57.568Z,989.30
2023-04-15T10:49:57.566Z,989.33
2023-04-15T10:50:57.546Z,989.36
2023-04-15T10:51:57.544Z,989.36
2023-04-15T10:52:57.858Z,989.39
2023-04-15T10:53:57.526Z,989.39
2023-04-15T10:54:57.508Z,989.39
2023-04-15T10:55:57.503Z,989.40
2023-04-15T10:56:57.485Z,989.41
2023-04-15T10:57:58.338Z,989.39
2023-04-15T10:58:57.468Z,989.40
2023-04-15T10:59:57.460Z,989.40
2023-04-15T11:00:57.444Z,989.42
2023-04-15T11:01:57.522Z,989.49
2023-04-15T11:02:57.871Z,989.42
2023-04-15T11:03:57.684Z,989.42
2023-04-15T11:04:57.447Z,989.42
2023-04-15T11:05:57.411Z,989.42
2023-04-15T11:06:57.377Z,989.42
2023-04-15T11:07:57.834Z,989.43
2023-04-15T11:08:57.365Z,989.45
2023-04-15T11:09:57.354Z,989.45
2023-04-15T11:10:57.355Z,989.45
2023-04-15T11:11:57.336Z,989.47
2023-04-15T11:12:58.055Z,989.49
2023-04-15T11:13:57.319Z,989.50
2023-04-15T11:14:57.300Z,989.51
2023-04-15T11:15:57.359Z,989.51
2023-04-15T11:16:57.284Z,989.53
2023-04-15T11:17:57.602Z,989.50
2023-04-15T11:18:57.258Z,989.49
2023-04-15T11:19:57.254Z,989.51
2023-04-15T11:20:57.245Z,989.48
2023-04-15T11:21:57.225Z,989.53
2023-04-15T11:23:14.141Z,989.55
2023-04-15T11:23:57.219Z,989.58
2023-04-15T11:24:57.194Z,989.61
2023-04-15T11:25:57.192Z,989.65
2023-04-15T11:26:57.174Z,989.65
2023-04-15T11:27:57.915Z,989.67
2023-04-15T11:28:57.151Z,989.59
2023-04-15T11:29:57.147Z,989.63
2023-04-15T11:30:57.148Z,989.65
2023-04-15T11:31:57.157Z,989.66
2023-04-15T11:32:57.639Z,989.66
2023-04-15T11:33:57.123Z,989.67
2023-04-15T11:34:57.090Z,989.67
2023-04-15T11:35:57.093Z,989.67
2023-04-15T11:36:57.078Z,989.67
2023-04-15T11:37:57.372Z,989.69
2023-04-15T11:38:57.055Z,989.69
2023-04-15T11:39:57.047Z,989.70
2023-04-15T11:40:57.037Z,989.71
2023-04-15T11:41:57.031Z,989.73
2023-04-15T11:42:57.929Z,989.73
2023-04-15T11:43:57.034Z,989.72
2023-04-15T11:44:56.999Z,989.75
2023-04-15T11:45:57.033Z,989.77
2023-04-15T11:46:57.287Z,989.76
2023-04-15T11:47:57.307Z,989.76
2023-04-15T11:48:56.962Z,989.78
2023-04-15T11:49:56.948Z,989.76
2023-04-15T11:50:56.973Z,989.77
2023-04-15T11:51:56.926Z,989.75
2023-04-15T11:52:57.808Z,989.75
2023-04-15T11:53:56.909Z,989.81
2023-04-15T11:54:56.896Z,989.78
2023-04-15T11:55:56.897Z,989.77
2023-04-15T11:56:56.887Z,989.78
2023-04-15T11:57:57.166Z,989.78
2023-04-15T11:58:57.147Z,989.80
2023-04-15T11:59:56.884Z,989.80
2023-04-15T12:00:56.843Z,989.81
2023-04-15T12:01:56.866Z,989.82
2023-04-15T12:02:57.719Z,989.84
2023-04-15T12:03:56.915Z,989.89
2023-04-15T12:04:56.816Z,989.86
2023-04-15T12:05:56.787Z,989.89
2023-04-15T12:06:56.769Z,989.86
2023-04-15T12:07:57.073Z,989.88
2023-04-15T12:08:56.759Z,989.87
2023-04-15T12:09:56.784Z,989.88
2023-04-15T12:10:56.740Z,989.89
2023-04-15T12:11:56.734Z,989.92
2023-04-15T12:12:57.513Z,989.91
2023-04-15T12:13:56.717Z,989.92
2023-04-15T12:14:56.687Z,989.93
2023-04-15T12:15:56.758Z,989.95
2023-04-15T12:16:58.517Z,989.98
2023-04-15T12:17:57.126Z,989.98
2023-04-15T12:18:56.653Z,990.01
2023-04-15T12:19:56.633Z,990.04
2023-04-15T12:20:56.625Z,990.04
2023-04-15T12:21:57.845Z,990.05
2023-04-15T12:22:56.605Z,990.05
2023-04-15T12:23:57.380Z,990.07
2023-04-15T12:24:56.586Z,990.07
2023-04-15T12:25:57.390Z,990.09
2023-04-15T12:26:56.565Z,990.09
2023-04-15T12:27:56.562Z,990.11